Bloomington, Illinois
Current Conditions -  °F | °C
As of 9:56 AM on Friday 19 Dec 2014 (Local Time) from KBMI Reporting Station
Haze Haze  
Wind Chill: 26°   Ceiling: Unl
Heat Index: 26°   Visibility: 6mi
Dew Point: 20°   Wind: 0mph
Humidity: 78%   Direction: NA
Pressure: 30.34"   Gusts: NA
Location:  40.49°N, 89°W
Report Text: KBMI 191556Z 00000KT 6SM HZ CLR M03/M07 A3034 RMK AO2 T10331066 SLP296
Loading
Personal Weather Stations






























Interactive Weather Map New forecast layout! Learn more

10-Day Weather Forecast

Advertisements
Track Severe Weather on mobile